sensor_id;sensor_type;location;lat;lon;timestamp;P1;durP1;ratioP1;P2;durP2;ratioP2
77522;SDS011;66637;-29.628;-49.938;2023-08-06T00:01:38;140.52;;;20.15;;
77522;SDS011;66637;-29.628;-49.938;2023-08-06T00:04:09;177.18;;;21.30;;
77522;SDS011;66637;-29.628;-49.938;2023-08-06T00:06:40;190.30;;;22.75;;
77522;SDS011;66637;-29.628;-49.938;2023-08-06T00:09:12;163.98;;;21.55;;
77522;SDS011;66637;-29.628;-49.938;2023-08-06T00:11:43;174.63;;;22.35;;
77522;SDS011;66637;-29.628;-49.938;2023-08-06T00:14:17;167.85;;;21.08;;
77522;SDS011;66637;-29.628;-49.938;2023-08-06T00:16:49;153.65;;;21.33;;
77522;SDS011;66637;-29.628;-49.938;2023-08-06T00:19:20;160.95;;;20.83;;
77522;SDS011;66637;-29.628;-49.938;2023-08-06T00:21:54;159.50;;;20.75;;
77522;SDS011;66637;-29.628;-49.938;2023-08-06T00:24:41;136.85;;;18.52;;
77522;SDS011;66637;-29.628;-49.938;2023-08-06T00:27:13;151.88;;;19.30;;
77522;SDS011;66637;-29.628;-49.938;2023-08-06T00:29:43;164.68;;;20.00;;
77522;SDS011;66637;-29.628;-49.938;2023-08-06T00:32:17;162.65;;;19.80;;
77522;SDS011;66637;-29.628;-49.938;2023-08-06T00:34:49;137.07;;;18.52;;
77522;SDS011;66637;-29.628;-49.938;2023-08-06T00:37:20;157.23;;;19.42;;
77522;SDS011;66637;-29.628;-49.938;2023-08-06T00:39:50;129.15;;;17.67;;
77522;SDS011;66637;-29.628;-49.938;2023-08-06T00:42:22;116.05;;;16.42;;
77522;SDS011;66637;-29.628;-49.938;2023-08-06T00:44:52;131.75;;;17.92;;
77522;SDS011;66637;-29.628;-49.938;2023-08-06T00:47:24;114.70;;;15.48;;
77522;SDS011;66637;-29.628;-49.938;2023-08-06T00:49:55;107.88;;;14.82;;
77522;SDS011;66637;-29.628;-49.938;2023-08-06T00:52:27;106.53;;;15.18;;
77522;SDS011;66637;-29.628;-49.938;2023-08-06T00:54:59;142.73;;;18.90;;
77522;SDS011;66637;-29.628;-49.938;2023-08-06T00:57:32;135.15;;;17.02;;
77522;SDS011;66637;-29.628;-49.938;2023-08-06T01:00:02;110.57;;;16.38;;
77522;SDS011;66637;-29.628;-49.938;2023-08-06T01:02:38;136.20;;;17.88;;
77522;SDS011;66637;-29.628;-49.938;2023-08-06T01:06:06;104.90;;;15.15;;
77522;SDS011;66637;-29.628;-49.938;2023-08-06T01:08:54;117.85;;;14.55;;
77522;SDS011;66637;-29.628;-49.938;2023-08-06T01:11:51;87.72;;;13.32;;
77522;SDS011;66637;-29.628;-49.938;2023-08-06T01:14:45;70.18;;;10.95;;
77522;SDS011;66637;-29.628;-49.938;2023-08-06T01:17:43;61.88;;;10.05;;
77522;SDS011;66637;-29.628;-49.938;2023-08-06T01:20:16;95.65;;;12.30;;
77522;SDS011;66637;-29.628;-49.938;2023-08-06T01:22:55;108.88;;;14.35;;
77522;SDS011;66637;-29.628;-49.938;2023-08-06T01:25:34;115.82;;;15.80;;
77522;SDS011;66637;-29.628;-49.938;2023-08-06T01:31:27;123.10;;;16.95;;
77522;SDS011;66637;-29.628;-49.938;2023-08-06T01:34:05;109.72;;;15.73;;
77522;SDS011;66637;-29.628;-49.938;2023-08-06T01:36:43;124.88;;;14.88;;
77522;SDS011;66637;-29.628;-49.938;2023-08-06T01:39:15;126.40;;;15.82;;
77522;SDS011;66637;-29.628;-49.938;2023-08-06T01:41:47;130.50;;;17.30;;
77522;SDS011;66637;-29.628;-49.938;2023-08-06T01:44:19;139.00;;;18.13;;
77522;SDS011;66637;-29.628;-49.938;2023-08-06T01:46:50;141.45;;;19.17;;
77522;SDS011;66637;-29.628;-49.938;2023-08-06T01:49:22;110.72;;;16.27;;
77522;SDS011;66637;-29.628;-49.938;2023-08-06T01:51:53;101.80;;;14.05;;
77522;SDS011;66637;-29.628;-49.938;2023-08-06T01:54:25;83.47;;;14.20;;
77522;SDS011;66637;-29.628;-49.938;2023-08-06T01:56:56;112.82;;;16.00;;
77522;SDS011;66637;-29.628;-49.938;2023-08-06T01:59:28;141.40;;;18.60;;
77522;SDS011;66637;-29.628;-49.938;2023-08-06T02:02:01;85.80;;;13.00;;
77522;SDS011;66637;-29.628;-49.938;2023-08-06T02:04:34;111.45;;;15.73;;
77522;SDS011;66637;-29.628;-49.938;2023-08-06T02:07:07;86.78;;;12.75;;
77522;SDS011;66637;-29.628;-49.938;2023-08-06T02:09:37;77.68;;;11.82;;
77522;SDS011;66637;-29.628;-49.938;2023-08-06T02:12:10;85.40;;;12.35;;
77522;SDS011;66637;-29.628;-49.938;2023-08-06T02:14:42;32.83;;;7.32;;
77522;SDS011;66637;-29.628;-49.938;2023-08-06T02:17:14;25.30;;;6.13;;
77522;SDS011;66637;-29.628;-49.938;2023-08-06T02:19:45;41.83;;;7.88;;
77522;SDS011;66637;-29.628;-49.938;2023-08-06T02:22:15;18.33;;;5.85;;
77522;SDS011;66637;-29.628;-49.938;2023-08-06T02:24:55;19.20;;;5.40;;
77522;SDS011;66637;-29.628;-49.938;2023-08-06T02:27:27;18.02;;;5.70;;
77522;SDS011;66637;-29.628;-49.938;2023-08-06T02:29:58;16.67;;;5.47;;
77522;SDS011;66637;-29.628;-49.938;2023-08-06T02:32:39;17.80;;;5.13;;
77522;SDS011;66637;-29.628;-49.938;2023-08-06T02:35:18;17.27;;;5.55;;
77522;SDS011;66637;-29.628;-49.938;2023-08-06T02:37:49;19.85;;;5.68;;
77522;SDS011;66637;-29.628;-49.938;2023-08-06T02:40:20;14.57;;;5.07;;
77522;SDS011;66637;-29.628;-49.938;2023-08-06T02:42:51;18.13;;;5.43;;
77522;SDS011;66637;-29.628;-49.938;2023-08-06T02:45:22;17.35;;;6.28;;
77522;SDS011;66637;-29.628;-49.938;2023-08-06T02:47:53;20.33;;;6.68;;
77522;SDS011;66637;-29.628;-49.938;2023-08-06T02:50:25;18.27;;;5.47;;
77522;SDS011;66637;-29.628;-49.938;2023-08-06T02:52:56;25.00;;;6.43;;
77522;SDS011;66637;-29.628;-49.938;2023-08-06T02:55:27;23.38;;;7.68;;
77522;SDS011;66637;-29.628;-49.938;2023-08-06T02:58:03;23.88;;;7.00;;
77522;SDS011;66637;-29.628;-49.938;2023-08-06T03:00:40;27.77;;;7.50;;
77522;SDS011;66637;-29.628;-49.938;2023-08-06T03:03:15;48.05;;;9.93;;
77522;SDS011;66637;-29.628;-49.938;2023-08-06T03:05:59;107.03;;;16.83;;
77522;SDS011;66637;-29.628;-49.938;2023-08-06T03:08:38;128.73;;;17.48;;
77522;SDS011;66637;-29.628;-49.938;2023-08-06T03:11:12;120.25;;;17.90;;
77522;SDS011;66637;-29.628;-49.938;2023-08-06T03:13:43;116.50;;;19.38;;
77522;SDS011;66637;-29.628;-49.938;2023-08-06T03:16:17;124.78;;;20.33;;
77522;SDS011;66637;-29.628;-49.938;2023-08-06T03:18:48;113.65;;;17.13;;
77522;SDS011;66637;-29.628;-49.938;2023-08-06T03:21:21;107.88;;;16.83;;
77522;SDS011;66637;-29.628;-49.938;2023-08-06T03:23:52;63.28;;;12.63;;
77522;SDS011;66637;-29.628;-49.938;2023-08-06T03:26:26;32.85;;;9.55;;
77522;SDS011;66637;-29.628;-49.938;2023-08-06T03:28:57;27.00;;;9.38;;
77522;SDS011;66637;-29.628;-49.938;2023-08-06T03:31:32;24.73;;;9.32;;
77522;SDS011;66637;-29.628;-49.938;2023-08-06T03:34:03;28.60;;;10.50;;
77522;SDS011;66637;-29.628;-49.938;2023-08-06T03:36:35;24.40;;;9.70;;
77522;SDS011;66637;-29.628;-49.938;2023-08-06T03:39:13;36.38;;;11.45;;
77522;SDS011;66637;-29.628;-49.938;2023-08-06T03:41:43;30.88;;;11.80;;
77522;SDS011;66637;-29.628;-49.938;2023-08-06T03:44:17;31.35;;;12.27;;
77522;SDS011;66637;-29.628;-49.938;2023-08-06T03:46:50;33.88;;;13.00;;
77522;SDS011;66637;-29.628;-49.938;2023-08-06T03:49:21;32.63;;;13.60;;
77522;SDS011;66637;-29.628;-49.938;2023-08-06T03:51:51;38.45;;;14.65;;
77522;SDS011;66637;-29.628;-49.938;2023-08-06T03:54:25;31.90;;;15.25;;
77522;SDS011;66637;-29.628;-49.938;2023-08-06T03:56:55;36.95;;;15.55;;
77522;SDS011;66637;-29.628;-49.938;2023-08-06T03:59:32;34.90;;;14.77;;
77522;SDS011;66637;-29.628;-49.938;2023-08-06T04:02:04;41.53;;;16.13;;
77522;SDS011;66637;-29.628;-49.938;2023-08-06T04:04:36;42.90;;;15.73;;
77522;SDS011;66637;-29.628;-49.938;2023-08-06T04:07:07;39.15;;;16.17;;
77522;SDS011;66637;-29.628;-49.938;2023-08-06T04:09:54;42.72;;;16.85;;
77522;SDS011;66637;-29.628;-49.938;2023-08-06T04:12:29;43.25;;;15.98;;
77522;SDS011;66637;-29.628;-49.938;2023-08-06T04:15:00;42.70;;;16.92;;
77522;SDS011;66637;-29.628;-49.938;2023-08-06T04:17:31;42.95;;;17.27;;
77522;SDS011;66637;-29.628;-49.938;2023-08-06T04:20:05;35.88;;;17.15;;
77522;SDS011;66637;-29.628;-49.938;2023-08-06T04:22:37;42.42;;;16.73;;
77522;SDS011;66637;-29.628;-49.938;2023-08-06T04:25:09;37.40;;;16.55;;
77522;SDS011;66637;-29.628;-49.938;2023-08-06T04:27:45;40.90;;;17.48;;
77522;SDS011;66637;-29.628;-49.938;2023-08-06T04:30:16;44.85;;;18.73;;
77522;SDS011;66637;-29.628;-49.938;2023-08-06T04:32:49;40.83;;;18.90;;
77522;SDS011;66637;-29.628;-49.938;2023-08-06T04:35:21;42.97;;;17.77;;
77522;SDS011;66637;-29.628;-49.938;2023-08-06T04:38:00;46.60;;;18.40;;
77522;SDS011;66637;-29.628;-49.938;2023-08-06T04:40:33;49.08;;;18.88;;
77522;SDS011;66637;-29.628;-49.938;2023-08-06T04:43:07;43.17;;;17.45;;
77522;SDS011;66637;-29.628;-49.938;2023-08-06T04:45:44;44.72;;;17.58;;
77522;SDS011;66637;-29.628;-49.938;2023-08-06T04:48:19;42.35;;;18.00;;
77522;SDS011;66637;-29.628;-49.938;2023-08-06T04:50:52;41.47;;;17.45;;
77522;SDS011;66637;-29.628;-49.938;2023-08-06T04:53:25;44.97;;;17.55;;
77522;SDS011;66637;-29.628;-49.938;2023-08-06T04:55:58;47.17;;;18.08;;
77522;SDS011;66637;-29.628;-49.938;2023-08-06T04:58:29;45.03;;;18.15;;
77522;SDS011;66637;-29.628;-49.938;2023-08-06T05:01:00;45.53;;;17.48;;
77522;SDS011;66637;-29.628;-49.938;2023-08-06T05:03:33;46.45;;;18.23;;
77522;SDS011;66637;-29.628;-49.938;2023-08-06T05:06:05;67.20;;;19.90;;
77522;SDS011;66637;-29.628;-49.938;2023-08-06T05:08:36;115.80;;;24.65;;
77522;SDS011;66637;-29.628;-49.938;2023-08-06T05:11:08;80.45;;;20.50;;
77522;SDS011;66637;-29.628;-49.938;2023-08-06T05:13:39;75.35;;;20.52;;
77522;SDS011;66637;-29.628;-49.938;2023-08-06T05:16:13;71.15;;;19.52;;
77522;SDS011;66637;-29.628;-49.938;2023-08-06T05:18:43;54.72;;;18.95;;
77522;SDS011;66637;-29.628;-49.938;2023-08-06T05:21:14;51.55;;;17.70;;
77522;SDS011;66637;-29.628;-49.938;2023-08-06T05:23:47;43.72;;;17.13;;
77522;SDS011;66637;-29.628;-49.938;2023-08-06T05:26:20;45.15;;;17.73;;
77522;SDS011;66637;-29.628;-49.938;2023-08-06T05:28:51;41.10;;;17.05;;
77522;SDS011;66637;-29.628;-49.938;2023-08-06T05:31:22;50.90;;;18.85;;
77522;SDS011;66637;-29.628;-49.938;2023-08-06T05:33:54;43.92;;;17.55;;
77522;SDS011;66637;-29.628;-49.938;2023-08-06T05:36:25;40.75;;;17.33;;
77522;SDS011;66637;-29.628;-49.938;2023-08-06T05:39:05;45.58;;;17.30;;
77522;SDS011;66637;-29.628;-49.938;2023-08-06T05:42:15;45.13;;;17.42;;
77522;SDS011;66637;-29.628;-49.938;2023-08-06T05:44:50;55.05;;;18.83;;
77522;SDS011;66637;-29.628;-49.938;2023-08-06T05:47:23;79.68;;;20.40;;
77522;SDS011;66637;-29.628;-49.938;2023-08-06T05:49:55;108.15;;;22.58;;
77522;SDS011;66637;-29.628;-49.938;2023-08-06T05:52:27;163.43;;;27.67;;
77522;SDS011;66637;-29.628;-49.938;2023-08-06T05:54:58;168.68;;;29.38;;
77522;SDS011;66637;-29.628;-49.938;2023-08-06T05:57:29;155.07;;;30.20;;
77522;SDS011;66637;-29.628;-49.938;2023-08-06T06:00:03;161.48;;;29.13;;
77522;SDS011;66637;-29.628;-49.938;2023-08-06T06:02:39;169.63;;;30.13;;
77522;SDS011;66637;-29.628;-49.938;2023-08-06T06:05:12;147.75;;;27.33;;
77522;SDS011;66637;-29.628;-49.938;2023-08-06T06:07:48;140.32;;;26.63;;
77522;SDS011;66637;-29.628;-49.938;2023-08-06T06:10:21;141.18;;;26.15;;
77522;SDS011;66637;-29.628;-49.938;2023-08-06T06:12:56;111.72;;;24.95;;
77522;SDS011;66637;-29.628;-49.938;2023-08-06T06:15:28;164.70;;;31.02;;
77522;SDS011;66637;-29.628;-49.938;2023-08-06T06:18:03;155.57;;;29.98;;
77522;SDS011;66637;-29.628;-49.938;2023-08-06T06:20:34;137.77;;;27.58;;
77522;SDS011;66637;-29.628;-49.938;2023-08-06T06:23:05;155.43;;;27.27;;
77522;SDS011;66637;-29.628;-49.938;2023-08-06T06:26:15;141.18;;;28.20;;
77522;SDS011;66637;-29.628;-49.938;2023-08-06T06:28:48;163.70;;;30.45;;
77522;SDS011;66637;-29.628;-49.938;2023-08-06T06:31:22;166.82;;;30.88;;
77522;SDS011;66637;-29.628;-49.938;2023-08-06T06:33:54;147.63;;;28.92;;
77522;SDS011;66637;-29.628;-49.938;2023-08-06T06:36:26;139.90;;;27.77;;
77522;SDS011;66637;-29.628;-49.938;2023-08-06T06:39:00;150.60;;;27.83;;
77522;SDS011;66637;-29.628;-49.938;2023-08-06T06:41:31;155.15;;;28.70;;
77522;SDS011;66637;-29.628;-49.938;2023-08-06T06:44:11;186.13;;;29.95;;
77522;SDS011;66637;-29.628;-49.938;2023-08-06T06:47:38;193.93;;;32.45;;
77522;SDS011;66637;-29.628;-49.938;2023-08-06T06:50:09;205.32;;;32.70;;
77522;SDS011;66637;-29.628;-49.938;2023-08-06T06:52:46;209.60;;;33.55;;
77522;SDS011;66637;-29.628;-49.938;2023-08-06T06:55:17;201.82;;;34.60;;
77522;SDS011;66637;-29.628;-49.938;2023-08-06T06:57:49;202.02;;;33.35;;
77522;SDS011;66637;-29.628;-49.938;2023-08-06T07:00:26;168.18;;;30.95;;
77522;SDS011;66637;-29.628;-49.938;2023-08-06T07:02:56;99.20;;;24.73;;
77522;SDS011;66637;-29.628;-49.938;2023-08-06T07:05:26;69.93;;;20.80;;
77522;SDS011;66637;-29.628;-49.938;2023-08-06T07:07:57;59.08;;;18.70;;
77522;SDS011;66637;-29.628;-49.938;2023-08-06T07:10:28;46.47;;;17.20;;
77522;SDS011;66637;-29.628;-49.938;2023-08-06T07:12:59;44.25;;;17.00;;
77522;SDS011;66637;-29.628;-49.938;2023-08-06T07:15:32;40.22;;;16.25;;
77522;SDS011;66637;-29.628;-49.938;2023-08-06T07:18:03;39.92;;;16.30;;
77522;SDS011;66637;-29.628;-49.938;2023-08-06T07:20:33;43.38;;;16.20;;
77522;SDS011;66637;-29.628;-49.938;2023-08-06T07:23:04;98.78;;;22.13;;
77522;SDS011;66637;-29.628;-49.938;2023-08-06T07:25:36;45.20;;;17.50;;
77522;SDS011;66637;-29.628;-49.938;2023-08-06T07:28:06;59.22;;;18.35;;
77522;SDS011;66637;-29.628;-49.938;2023-08-06T07:30:40;50.13;;;17.67;;
77522;SDS011;66637;-29.628;-49.938;2023-08-06T07:33:12;61.90;;;19.77;;
77522;SDS011;66637;-29.628;-49.938;2023-08-06T07:35:42;60.92;;;18.92;;
77522;SDS011;66637;-29.628;-49.938;2023-08-06T07:38:28;126.88;;;26.90;;
77522;SDS011;66637;-29.628;-49.938;2023-08-06T07:41:35;146.90;;;28.23;;
77522;SDS011;66637;-29.628;-49.938;2023-08-06T07:44:06;141.95;;;28.20;;
77522;SDS011;66637;-29.628;-49.938;2023-08-06T07:46:37;150.82;;;28.35;;
77522;SDS011;66637;-29.628;-49.938;2023-08-06T07:49:09;132.93;;;26.42;;
77522;SDS011;66637;-29.628;-49.938;2023-08-06T07:51:40;111.95;;;22.52;;
77522;SDS011;66637;-29.628;-49.938;2023-08-06T07:54:12;73.95;;;20.48;;
77522;SDS011;66637;-29.628;-49.938;2023-08-06T07:56:43;55.60;;;16.95;;
77522;SDS011;66637;-29.628;-49.938;2023-08-06T07:59:17;79.85;;;19.27;;
77522;SDS011;66637;-29.628;-49.938;2023-08-06T08:01:51;43.42;;;17.55;;
77522;SDS011;66637;-29.628;-49.938;2023-08-06T08:04:25;73.15;;;18.58;;
77522;SDS011;66637;-29.628;-49.938;2023-08-06T08:06:59;56.65;;;18.40;;
77522;SDS011;66637;-29.628;-49.938;2023-08-06T08:09:31;77.70;;;20.33;;
77522;SDS011;66637;-29.628;-49.938;2023-08-06T08:12:03;91.25;;;20.70;;
77522;SDS011;66637;-29.628;-49.938;2023-08-06T08:14:36;118.40;;;23.30;;
77522;SDS011;66637;-29.628;-49.938;2023-08-06T08:17:07;118.38;;;24.92;;
77522;SDS011;66637;-29.628;-49.938;2023-08-06T08:19:38;156.40;;;26.52;;
77522;SDS011;66637;-29.628;-49.938;2023-08-06T08:22:09;165.65;;;27.58;;
77522;SDS011;66637;-29.628;-49.938;2023-08-06T08:24:40;165.98;;;28.30;;
77522;SDS011;66637;-29.628;-49.938;2023-08-06T08:27:14;192.65;;;29.98;;
77522;SDS011;66637;-29.628;-49.938;2023-08-06T08:30:03;202.30;;;33.28;;
77522;SDS011;66637;-29.628;-49.938;2023-08-06T08:32:36;213.80;;;33.45;;
77522;SDS011;66637;-29.628;-49.938;2023-08-06T08:35:06;213.35;;;34.97;;
77522;SDS011;66637;-29.628;-49.938;2023-08-06T08:37:38;218.57;;;36.17;;
77522;SDS011;66637;-29.628;-49.938;2023-08-06T08:40:17;208.38;;;34.78;;
77522;SDS011;66637;-29.628;-49.938;2023-08-06T08:45:55;193.35;;;30.67;;
77522;SDS011;66637;-29.628;-49.938;2023-08-06T08:48:49;178.23;;;31.73;;
77522;SDS011;66637;-29.628;-49.938;2023-08-06T08:53:58;160.73;;;29.23;;
77522;SDS011;66637;-29.628;-49.938;2023-08-06T08:56:31;196.63;;;33.47;;
77522;SDS011;66637;-29.628;-49.938;2023-08-06T08:59:06;193.38;;;34.78;;
77522;SDS011;66637;-29.628;-49.938;2023-08-06T09:01:37;188.57;;;33.08;;
77522;SDS011;66637;-29.628;-49.938;2023-08-06T09:04:10;188.70;;;32.10;;
77522;SDS011;66637;-29.628;-49.938;2023-08-06T09:06:43;183.95;;;34.63;;
77522;SDS011;66637;-29.628;-49.938;2023-08-06T09:09:48;192.52;;;31.25;;
77522;SDS011;66637;-29.628;-49.938;2023-08-06T09:12:22;182.20;;;33.70;;
77522;SDS011;66637;-29.628;-49.938;2023-08-06T09:17:57;164.85;;;30.40;;
77522;SDS011;66637;-29.628;-49.938;2023-08-06T09:20:28;177.77;;;31.33;;
77522;SDS011;66637;-29.628;-49.938;2023-08-06T09:23:06;185.63;;;32.17;;
77522;SDS011;66637;-29.628;-49.938;2023-08-06T09:25:40;214.82;;;34.78;;
77522;SDS011;66637;-29.628;-49.938;2023-08-06T09:28:14;232.27;;;36.03;;
77522;SDS011;66637;-29.628;-49.938;2023-08-06T09:31:17;140.75;;;28.42;;
77522;SDS011;66637;-29.628;-49.938;2023-08-06T09:34:46;86.93;;;20.67;;
77522;SDS011;66637;-29.628;-49.938;2023-08-06T09:37:37;58.78;;;19.20;;
77522;SDS011;66637;-29.628;-49.938;2023-08-06T09:40:36;45.75;;;16.65;;
77522;SDS011;66637;-29.628;-49.938;2023-08-06T09:43:30;36.72;;;16.02;;
77522;SDS011;66637;-29.628;-49.938;2023-08-06T09:46:26;44.05;;;17.08;;
77522;SDS011;66637;-29.628;-49.938;2023-08-06T09:49:02;61.67;;;19.02;;
77522;SDS011;66637;-29.628;-49.938;2023-08-06T09:51:34;158.80;;;27.50;;
77522;SDS011;66637;-29.628;-49.938;2023-08-06T09:54:08;142.27;;;29.90;;
77522;SDS011;66637;-29.628;-49.938;2023-08-06T09:57:00;177.93;;;32.78;;
77522;SDS011;66637;-29.628;-49.938;2023-08-06T10:00:17;119.38;;;23.92;;
77522;SDS011;66637;-29.628;-49.938;2023-08-06T10:03:07;100.45;;;23.98;;
77522;SDS011;66637;-29.628;-49.938;2023-08-06T10:05:46;149.00;;;28.85;;
77522;SDS011;66637;-29.628;-49.938;2023-08-06T10:08:19;123.25;;;26.45;;
77522;SDS011;66637;-29.628;-49.938;2023-08-06T10:10:49;171.77;;;32.03;;
77522;SDS011;66637;-29.628;-49.938;2023-08-06T10:13:22;146.48;;;29.50;;
77522;SDS011;66637;-29.628;-49.938;2023-08-06T10:15:54;144.40;;;29.60;;
77522;SDS011;66637;-29.628;-49.938;2023-08-06T10:18:25;156.38;;;29.42;;
77522;SDS011;66637;-29.628;-49.938;2023-08-06T10:20:59;145.48;;;28.70;;
77522;SDS011;66637;-29.628;-49.938;2023-08-06T10:23:33;165.85;;;31.25;;
77522;SDS011;66637;-29.628;-49.938;2023-08-06T10:26:07;139.02;;;30.30;;
77522;SDS011;66637;-29.628;-49.938;2023-08-06T10:28:38;148.68;;;27.08;;
77522;SDS011;66637;-29.628;-49.938;2023-08-06T10:31:12;127.35;;;25.38;;
77522;SDS011;66637;-29.628;-49.938;2023-08-06T10:33:44;118.75;;;27.23;;
77522;SDS011;66637;-29.628;-49.938;2023-08-06T10:36:18;152.75;;;27.92;;
77522;SDS011;66637;-29.628;-49.938;2023-08-06T10:38:51;189.85;;;31.10;;
77522;SDS011;66637;-29.628;-49.938;2023-08-06T10:41:23;129.10;;;28.25;;
77522;SDS011;66637;-29.628;-49.938;2023-08-06T10:44:10;165.45;;;27.25;;
77522;SDS011;66637;-29.628;-49.938;2023-08-06T10:46:42;162.93;;;29.60;;
77522;SDS011;66637;-29.628;-49.938;2023-08-06T10:49:13;136.63;;;28.15;;
77522;SDS011;66637;-29.628;-49.938;2023-08-06T10:51:50;133.35;;;28.02;;
77522;SDS011;66637;-29.628;-49.938;2023-08-06T10:54:21;161.25;;;30.60;;
77522;SDS011;66637;-29.628;-49.938;2023-08-06T10:56:55;143.38;;;30.27;;
77522;SDS011;66637;-29.628;-49.938;2023-08-06T10:59:26;161.02;;;34.90;;
77522;SDS011;66637;-29.628;-49.938;2023-08-06T11:01:58;179.80;;;32.25;;
77522;SDS011;66637;-29.628;-49.938;2023-08-06T11:04:34;143.27;;;26.75;;
77522;SDS011;66637;-29.628;-49.938;2023-08-06T11:07:07;167.23;;;31.45;;
77522;SDS011;66637;-29.628;-49.938;2023-08-06T11:09:37;164.52;;;29.98;;
77522;SDS011;66637;-29.628;-49.938;2023-08-06T11:12:11;130.82;;;29.05;;
77522;SDS011;66637;-29.628;-49.938;2023-08-06T11:14:51;144.15;;;32.55;;
77522;SDS011;66637;-29.628;-49.938;2023-08-06T11:17:22;154.00;;;33.42;;
77522;SDS011;66637;-29.628;-49.938;2023-08-06T11:19:56;138.70;;;31.15;;
77522;SDS011;66637;-29.628;-49.938;2023-08-06T11:22:30;127.75;;;30.40;;
77522;SDS011;66637;-29.628;-49.938;2023-08-06T11:25:05;124.32;;;30.00;;
77522;SDS011;66637;-29.628;-49.938;2023-08-06T11:27:37;155.50;;;34.78;;
77522;SDS011;66637;-29.628;-49.938;2023-08-06T11:30:10;128.32;;;30.17;;
77522;SDS011;66637;-29.628;-49.938;2023-08-06T11:32:45;140.85;;;31.45;;
77522;SDS011;66637;-29.628;-49.938;2023-08-06T11:35:18;162.32;;;35.75;;
77522;SDS011;66637;-29.628;-49.938;2023-08-06T11:37:49;116.55;;;28.70;;
77522;SDS011;66637;-29.628;-49.938;2023-08-06T11:40:19;156.00;;;28.70;;
77522;SDS011;66637;-29.628;-49.938;2023-08-06T11:42:55;120.97;;;28.23;;
77522;SDS011;66637;-29.628;-49.938;2023-08-06T11:45:26;98.95;;;25.10;;
77522;SDS011;66637;-29.628;-49.938;2023-08-06T11:47:56;154.25;;;27.10;;
77522;SDS011;66637;-29.628;-49.938;2023-08-06T11:50:29;110.18;;;27.25;;
77522;SDS011;66637;-29.628;-49.938;2023-08-06T11:53:00;134.05;;;27.05;;
77522;SDS011;66637;-29.628;-49.938;2023-08-06T11:55:32;134.57;;;27.77;;
77522;SDS011;66637;-29.628;-49.938;2023-08-06T11:58:25;100.50;;;26.08;;
77522;SDS011;66637;-29.628;-49.938;2023-08-06T12:00:55;105.93;;;25.67;;
77522;SDS011;66637;-29.628;-49.938;2023-08-06T12:03:28;133.40;;;31.70;;
77522;SDS011;66637;-29.628;-49.938;2023-08-06T12:06:00;128.73;;;27.65;;
77522;SDS011;66637;-29.628;-49.938;2023-08-06T12:08:33;125.70;;;26.60;;
77522;SDS011;66637;-29.628;-49.938;2023-08-06T12:11:09;113.97;;;26.98;;
77522;SDS011;66637;-29.628;-49.938;2023-08-06T12:13:49;101.85;;;27.63;;
77522;SDS011;66637;-29.628;-49.938;2023-08-06T12:16:31;110.07;;;26.35;;
77522;SDS011;66637;-29.628;-49.938;2023-08-06T12:19:07;145.23;;;27.13;;
77522;SDS011;66637;-29.628;-49.938;2023-08-06T12:21:39;86.18;;;23.27;;
77522;SDS011;66637;-29.628;-49.938;2023-08-06T12:27:28;100.93;;;24.40;;
77522;SDS011;66637;-29.628;-49.938;2023-08-06T12:30:01;117.47;;;26.17;;
77522;SDS011;66637;-29.628;-49.938;2023-08-06T12:32:38;113.57;;;27.73;;
77522;SDS011;66637;-29.628;-49.938;2023-08-06T12:35:13;136.35;;;26.00;;
77522;SDS011;66637;-29.628;-49.938;2023-08-06T12:37:45;99.72;;;23.67;;
77522;SDS011;66637;-29.628;-49.938;2023-08-06T12:40:17;101.20;;;26.00;;
77522;SDS011;66637;-29.628;-49.938;2023-08-06T12:43:03;99.90;;;23.58;;
77522;SDS011;66637;-29.628;-49.938;2023-08-06T12:45:33;131.18;;;26.02;;
77522;SDS011;66637;-29.628;-49.938;2023-08-06T12:48:04;97.95;;;22.00;;
77522;SDS011;66637;-29.628;-49.938;2023-08-06T12:50:36;117.53;;;23.40;;
77522;SDS011;66637;-29.628;-49.938;2023-08-06T12:53:06;114.82;;;23.17;;
77522;SDS011;66637;-29.628;-49.938;2023-08-06T12:55:52;108.55;;;20.40;;
77522;SDS011;66637;-29.628;-49.938;2023-08-06T12:58:34;172.50;;;30.77;;
77522;SDS011;66637;-29.628;-49.938;2023-08-06T13:01:05;127.70;;;24.65;;
77522;SDS011;66637;-29.628;-49.938;2023-08-06T13:03:52;104.22;;;26.02;;
77522;SDS011;66637;-29.628;-49.938;2023-08-06T13:06:42;98.45;;;24.17;;
77522;SDS011;66637;-29.628;-49.938;2023-08-06T13:09:14;82.07;;;21.33;;
77522;SDS011;66637;-29.628;-49.938;2023-08-06T13:11:46;98.10;;;24.73;;
77522;SDS011;66637;-29.628;-49.938;2023-08-06T13:14:20;83.75;;;22.48;;
77522;SDS011;66637;-29.628;-49.938;2023-08-06T13:16:52;95.25;;;23.30;;
77522;SDS011;66637;-29.628;-49.938;2023-08-06T13:19:25;105.85;;;23.00;;
77522;SDS011;66637;-29.628;-49.938;2023-08-06T13:22:03;82.93;;;20.80;;
77522;SDS011;66637;-29.628;-49.938;2023-08-06T13:24:39;61.28;;;19.02;;
77522;SDS011;66637;-29.628;-49.938;2023-08-06T13:27:13;74.63;;;19.27;;
77522;SDS011;66637;-29.628;-49.938;2023-08-06T13:29:44;94.53;;;23.92;;
77522;SDS011;66637;-29.628;-49.938;2023-08-06T13:32:15;102.25;;;23.83;;
77522;SDS011;66637;-29.628;-49.938;2023-08-06T13:37:39;77.90;;;22.77;;
77522;SDS011;66637;-29.628;-49.938;2023-08-06T13:40:10;62.67;;;19.35;;
77522;SDS011;66637;-29.628;-49.938;2023-08-06T13:42:42;72.80;;;20.67;;
77522;SDS011;66637;-29.628;-49.938;2023-08-06T13:45:12;63.67;;;19.25;;
77522;SDS011;66637;-29.628;-49.938;2023-08-06T13:47:47;76.45;;;21.88;;
77522;SDS011;66637;-29.628;-49.938;2023-08-06T13:50:18;90.82;;;20.90;;
77522;SDS011;66637;-29.628;-49.938;2023-08-06T13:52:52;103.25;;;23.40;;
77522;SDS011;66637;-29.628;-49.938;2023-08-06T13:55:24;65.90;;;20.58;;
77522;SDS011;66637;-29.628;-49.938;2023-08-06T13:57:56;90.35;;;22.73;;
77522;SDS011;66637;-29.628;-49.938;2023-08-06T14:00:27;70.72;;;20.05;;
77522;SDS011;66637;-29.628;-49.938;2023-08-06T14:02:58;77.97;;;22.20;;
77522;SDS011;66637;-29.628;-49.938;2023-08-06T14:05:29;86.20;;;23.80;;
77522;SDS011;66637;-29.628;-49.938;2023-08-06T14:08:01;112.03;;;26.42;;
77522;SDS011;66637;-29.628;-49.938;2023-08-06T14:10:32;79.68;;;23.98;;
77522;SDS011;66637;-29.628;-49.938;2023-08-06T14:13:07;95.68;;;23.20;;
77522;SDS011;66637;-29.628;-49.938;2023-08-06T14:15:38;80.50;;;21.80;;
77522;SDS011;66637;-29.628;-49.938;2023-08-06T14:18:13;91.35;;;25.05;;
77522;SDS011;66637;-29.628;-49.938;2023-08-06T14:20:45;72.68;;;21.30;;
77522;SDS011;66637;-29.628;-49.938;2023-08-06T14:23:16;77.68;;;20.73;;
77522;SDS011;66637;-29.628;-49.938;2023-08-06T14:25:50;56.88;;;19.08;;
77522;SDS011;66637;-29.628;-49.938;2023-08-06T14:28:28;63.88;;;20.45;;
77522;SDS011;66637;-29.628;-49.938;2023-08-06T14:30:59;64.78;;;19.92;;
77522;SDS011;66637;-29.628;-49.938;2023-08-06T14:33:31;60.42;;;16.55;;
77522;SDS011;66637;-29.628;-49.938;2023-08-06T14:36:06;70.97;;;18.67;;
77522;SDS011;66637;-29.628;-49.938;2023-08-06T14:38:40;56.65;;;19.48;;
77522;SDS011;66637;-29.628;-49.938;2023-08-06T14:41:29;53.17;;;19.30;;